sensor_id;sensor_type;location;lat;lon;timestamp;P1;durP1;ratioP1;P2;durP2;ratioP2
46439;SDS011;32138;50.966;6.968;2023-03-05T00:00:28;9.15;;;3.75;;
46439;SDS011;32138;50.966;6.968;2023-03-05T00:01:29;13.02;;;4.70;;
46439;SDS011;32138;50.966;6.968;2023-03-05T00:02:34;13.18;;;4.18;;
46439;SDS011;32138;50.966;6.968;2023-03-05T00:03:35;12.02;;;3.00;;
46439;SDS011;32138;50.966;6.968;2023-03-05T00:04:36;13.10;;;4.05;;
46439;SDS011;32138;50.966;6.968;2023-03-05T00:05:37;16.30;;;3.75;;
46439;SDS011;32138;50.966;6.968;2023-03-05T00:06:38;9.80;;;3.42;;
46439;SDS011;32138;50.966;6.968;2023-03-05T00:07:38;8.77;;;3.08;;
46439;SDS011;32138;50.966;6.968;2023-03-05T00:08:39;11.30;;;3.75;;
46439;SDS011;32138;50.966;6.968;2023-03-05T00:09:40;12.32;;;3.33;;
46439;SDS011;32138;50.966;6.968;2023-03-05T00:10:41;10.10;;;2.75;;
46439;SDS011;32138;50.966;6.968;2023-03-05T00:11:41;10.98;;;3.75;;
46439;SDS011;32138;50.966;6.968;2023-03-05T00:12:42;13.93;;;3.30;;
46439;SDS011;32138;50.966;6.968;2023-03-05T00:13:43;12.95;;;3.97;;
46439;SDS011;32138;50.966;6.968;2023-03-05T00:14:44;13.68;;;2.70;;
46439;SDS011;32138;50.966;6.968;2023-03-05T00:15:44;13.35;;;4.20;;
46439;SDS011;32138;50.966;6.968;2023-03-05T00:16:45;8.43;;;2.60;;
46439;SDS011;32138;50.966;6.968;2023-03-05T00:17:46;11.57;;;2.55;;
46439;SDS011;32138;50.966;6.968;2023-03-05T00:18:47;10.40;;;3.08;;
46439;SDS011;32138;50.966;6.968;2023-03-05T00:19:48;12.43;;;3.55;;
46439;SDS011;32138;50.966;6.968;2023-03-05T00:20:49;12.13;;;4.68;;
46439;SDS011;32138;50.966;6.968;2023-03-05T00:21:50;13.10;;;4.68;;
46439;SDS011;32138;50.966;6.968;2023-03-05T00:22:50;12.10;;;4.32;;
46439;SDS011;32138;50.966;6.968;2023-03-05T00:23:51;12.23;;;4.22;;
46439;SDS011;32138;50.966;6.968;2023-03-05T00:24:54;9.95;;;4.07;;
46439;SDS011;32138;50.966;6.968;2023-03-05T00:25:55;12.73;;;3.22;;
46439;SDS011;32138;50.966;6.968;2023-03-05T00:26:59;8.70;;;2.80;;
46439;SDS011;32138;50.966;6.968;2023-03-05T00:28:00;9.45;;;3.15;;
46439;SDS011;32138;50.966;6.968;2023-03-05T00:29:02;9.68;;;3.05;;
46439;SDS011;32138;50.966;6.968;2023-03-05T00:30:03;16.25;;;3.60;;
46439;SDS011;32138;50.966;6.968;2023-03-05T00:31:04;9.48;;;3.28;;
46439;SDS011;32138;50.966;6.968;2023-03-05T00:32:05;8.70;;;2.85;;
46439;SDS011;32138;50.966;6.968;2023-03-05T00:33:06;12.40;;;2.97;;
46439;SDS011;32138;50.966;6.968;2023-03-05T00:34:09;12.30;;;3.58;;
46439;SDS011;32138;50.966;6.968;2023-03-05T00:35:13;13.00;;;3.65;;
46439;SDS011;32138;50.966;6.968;2023-03-05T00:36:14;8.80;;;3.30;;
46439;SDS011;32138;50.966;6.968;2023-03-05T00:37:15;17.40;;;4.00;;
46439;SDS011;32138;50.966;6.968;2023-03-05T00:38:16;14.88;;;3.58;;
46439;SDS011;32138;50.966;6.968;2023-03-05T00:39:17;14.55;;;3.55;;
46439;SDS011;32138;50.966;6.968;2023-03-05T00:40:19;12.13;;;4.00;;
46439;SDS011;32138;50.966;6.968;2023-03-05T00:41:20;12.20;;;4.03;;
46439;SDS011;32138;50.966;6.968;2023-03-05T00:42:21;15.98;;;4.32;;
46439;SDS011;32138;50.966;6.968;2023-03-05T00:43:22;12.10;;;3.80;;
46439;SDS011;32138;50.966;6.968;2023-03-05T00:44:23;16.20;;;4.25;;
46439;SDS011;32138;50.966;6.968;2023-03-05T00:45:24;11.68;;;3.35;;
46439;SDS011;32138;50.966;6.968;2023-03-05T00:46:24;13.45;;;4.13;;
46439;SDS011;32138;50.966;6.968;2023-03-05T00:47:26;12.07;;;3.97;;
46439;SDS011;32138;50.966;6.968;2023-03-05T00:48:27;13.07;;;3.40;;
46439;SDS011;32138;50.966;6.968;2023-03-05T00:49:28;14.20;;;3.70;;
46439;SDS011;32138;50.966;6.968;2023-03-05T00:50:28;9.05;;;3.35;;
46439;SDS011;32138;50.966;6.968;2023-03-05T00:51:29;12.80;;;5.30;;
46439;SDS011;32138;50.966;6.968;2023-03-05T00:52:30;18.15;;;10.77;;
46439;SDS011;32138;50.966;6.968;2023-03-05T00:53:31;19.92;;;11.07;;
46439;SDS011;32138;50.966;6.968;2023-03-05T00:54:32;18.20;;;5.85;;
46439;SDS011;32138;50.966;6.968;2023-03-05T00:55:32;14.10;;;5.75;;
46439;SDS011;32138;50.966;6.968;2023-03-05T00:56:35;16.67;;;5.32;;
46439;SDS011;32138;50.966;6.968;2023-03-05T00:57:35;18.65;;;4.30;;
46439;SDS011;32138;50.966;6.968;2023-03-05T00:58:36;13.18;;;3.83;;
46439;SDS011;32138;50.966;6.968;2023-03-05T00:59:37;14.43;;;3.42;;
46439;SDS011;32138;50.966;6.968;2023-03-05T01:00:38;13.40;;;3.60;;
46439;SDS011;32138;50.966;6.968;2023-03-05T01:01:39;13.40;;;3.70;;
46439;SDS011;32138;50.966;6.968;2023-03-05T01:02:40;14.85;;;3.60;;
46439;SDS011;32138;50.966;6.968;2023-03-05T01:03:41;16.35;;;4.45;;
46439;SDS011;32138;50.966;6.968;2023-03-05T01:04:41;12.02;;;3.90;;
46439;SDS011;32138;50.966;6.968;2023-03-05T01:05:45;12.15;;;4.05;;
46439;SDS011;32138;50.966;6.968;2023-03-05T01:06:46;14.50;;;4.63;;
46439;SDS011;32138;50.966;6.968;2023-03-05T01:07:47;14.57;;;4.38;;
46439;SDS011;32138;50.966;6.968;2023-03-05T01:08:52;13.18;;;3.90;;
46439;SDS011;32138;50.966;6.968;2023-03-05T01:09:53;14.60;;;3.95;;
46439;SDS011;32138;50.966;6.968;2023-03-05T01:10:54;12.98;;;3.35;;
46439;SDS011;32138;50.966;6.968;2023-03-05T01:11:55;16.05;;;4.05;;
46439;SDS011;32138;50.966;6.968;2023-03-05T01:12:56;12.55;;;3.25;;
46439;SDS011;32138;50.966;6.968;2023-03-05T01:13:57;12.77;;;3.65;;
46439;SDS011;32138;50.966;6.968;2023-03-05T01:14:57;13.50;;;2.97;;
46439;SDS011;32138;50.966;6.968;2023-03-05T01:15:58;17.13;;;4.07;;
46439;SDS011;32138;50.966;6.968;2023-03-05T01:17:00;10.20;;;3.72;;
46439;SDS011;32138;50.966;6.968;2023-03-05T01:18:01;10.00;;;2.97;;
46439;SDS011;32138;50.966;6.968;2023-03-05T01:19:01;12.00;;;3.78;;
46439;SDS011;32138;50.966;6.968;2023-03-05T01:20:03;14.02;;;4.55;;
46439;SDS011;32138;50.966;6.968;2023-03-05T01:21:06;14.32;;;4.97;;
46439;SDS011;32138;50.966;6.968;2023-03-05T01:22:06;9.57;;;2.83;;
46439;SDS011;32138;50.966;6.968;2023-03-05T01:23:07;13.10;;;3.33;;
46439;SDS011;32138;50.966;6.968;2023-03-05T01:24:08;16.33;;;3.45;;
46439;SDS011;32138;50.966;6.968;2023-03-05T01:25:11;9.30;;;2.75;;
46439;SDS011;32138;50.966;6.968;2023-03-05T01:26:13;12.35;;;3.95;;
46439;SDS011;32138;50.966;6.968;2023-03-05T01:27:13;13.98;;;3.47;;
46439;SDS011;32138;50.966;6.968;2023-03-05T01:28:14;14.93;;;3.28;;
46439;SDS011;32138;50.966;6.968;2023-03-05T01:29:15;9.63;;;2.50;;
46439;SDS011;32138;50.966;6.968;2023-03-05T01:30:16;12.65;;;3.25;;
46439;SDS011;32138;50.966;6.968;2023-03-05T01:31:17;14.63;;;3.38;;
46439;SDS011;32138;50.966;6.968;2023-03-05T01:32:17;13.55;;;3.00;;
46439;SDS011;32138;50.966;6.968;2023-03-05T01:33:18;9.82;;;3.25;;
46439;SDS011;32138;50.966;6.968;2023-03-05T01:34:19;7.70;;;2.65;;
46439;SDS011;32138;50.966;6.968;2023-03-05T01:35:21;8.60;;;2.58;;
46439;SDS011;32138;50.966;6.968;2023-03-05T01:36:23;10.18;;;2.60;;
46439;SDS011;32138;50.966;6.968;2023-03-05T01:37:24;9.25;;;2.38;;
46439;SDS011;32138;50.966;6.968;2023-03-05T01:38:25;8.43;;;2.10;;
46439;SDS011;32138;50.966;6.968;2023-03-05T01:39:25;10.15;;;2.60;;
46439;SDS011;32138;50.966;6.968;2023-03-05T01:40:27;9.80;;;2.67;;
46439;SDS011;32138;50.966;6.968;2023-03-05T01:41:29;11.27;;;3.03;;
46439;SDS011;32138;50.966;6.968;2023-03-05T01:42:30;11.02;;;2.83;;
46439;SDS011;32138;50.966;6.968;2023-03-05T01:43:31;14.60;;;3.20;;
46439;SDS011;32138;50.966;6.968;2023-03-05T01:44:33;12.63;;;2.58;;
46439;SDS011;32138;50.966;6.968;2023-03-05T01:45:34;12.15;;;3.08;;
46439;SDS011;32138;50.966;6.968;2023-03-05T01:46:38;7.07;;;2.75;;
46439;SDS011;32138;50.966;6.968;2023-03-05T01:47:38;10.90;;;2.92;;
46439;SDS011;32138;50.966;6.968;2023-03-05T01:48:39;6.88;;;2.72;;
46439;SDS011;32138;50.966;6.968;2023-03-05T01:49:43;8.68;;;2.80;;
46439;SDS011;32138;50.966;6.968;2023-03-05T01:50:44;8.55;;;2.67;;
46439;SDS011;32138;50.966;6.968;2023-03-05T01:53:07;10.63;;;2.67;;
46439;SDS011;32138;50.966;6.968;2023-03-05T01:54:09;7.70;;;2.40;;
46439;SDS011;32138;50.966;6.968;2023-03-05T01:55:14;11.45;;;2.95;;
46439;SDS011;32138;50.966;6.968;2023-03-05T01:56:21;5.63;;;2.10;;
46439;SDS011;32138;50.966;6.968;2023-03-05T01:58:33;8.15;;;2.40;;
46439;SDS011;32138;50.966;6.968;2023-03-05T01:59:35;7.47;;;2.20;;
46439;SDS011;32138;50.966;6.968;2023-03-05T02:00:42;7.45;;;2.58;;
46439;SDS011;32138;50.966;6.968;2023-03-05T02:01:47;11.30;;;3.33;;
46439;SDS011;32138;50.966;6.968;2023-03-05T02:02:50;11.35;;;2.08;;
46439;SDS011;32138;50.966;6.968;2023-03-05T02:03:52;8.00;;;2.42;;
46439;SDS011;32138;50.966;6.968;2023-03-05T02:05:12;10.73;;;2.78;;
46439;SDS011;32138;50.966;6.968;2023-03-05T02:06:18;11.07;;;2.65;;
46439;SDS011;32138;50.966;6.968;2023-03-05T02:07:18;13.18;;;2.92;;
46439;SDS011;32138;50.966;6.968;2023-03-05T02:08:20;10.68;;;2.97;;
46439;SDS011;32138;50.966;6.968;2023-03-05T02:09:21;11.60;;;2.42;;
46439;SDS011;32138;50.966;6.968;2023-03-05T02:10:24;13.15;;;2.75;;
46439;SDS011;32138;50.966;6.968;2023-03-05T02:11:28;11.80;;;3.03;;
46439;SDS011;32138;50.966;6.968;2023-03-05T02:12:29;10.18;;;2.45;;
46439;SDS011;32138;50.966;6.968;2023-03-05T02:13:31;10.73;;;3.28;;
46439;SDS011;32138;50.966;6.968;2023-03-05T02:14:34;12.75;;;3.50;;
46439;SDS011;32138;50.966;6.968;2023-03-05T02:15:36;10.95;;;2.72;;
46439;SDS011;32138;50.966;6.968;2023-03-05T02:16:38;12.98;;;2.83;;
46439;SDS011;32138;50.966;6.968;2023-03-05T02:17:39;6.90;;;2.22;;
46439;SDS011;32138;50.966;6.968;2023-03-05T02:18:40;12.80;;;3.10;;
46439;SDS011;32138;50.966;6.968;2023-03-05T02:19:54;11.80;;;3.88;;
46439;SDS011;32138;50.966;6.968;2023-03-05T02:21:04;7.57;;;1.92;;
46439;SDS011;32138;50.966;6.968;2023-03-05T02:22:13;13.73;;;2.50;;
46439;SDS011;32138;50.966;6.968;2023-03-05T02:23:16;13.48;;;3.17;;
46439;SDS011;32138;50.966;6.968;2023-03-05T02:24:33;13.68;;;2.53;;
46439;SDS011;32138;50.966;6.968;2023-03-05T02:25:36;12.70;;;2.65;;
46439;SDS011;32138;50.966;6.968;2023-03-05T02:26:37;12.65;;;2.83;;
46439;SDS011;32138;50.966;6.968;2023-03-05T02:27:38;12.10;;;3.20;;
46439;SDS011;32138;50.966;6.968;2023-03-05T02:28:43;10.35;;;3.00;;
46439;SDS011;32138;50.966;6.968;2023-03-05T02:29:53;11.13;;;2.63;;
46439;SDS011;32138;50.966;6.968;2023-03-05T02:30:54;10.38;;;2.50;;
46439;SDS011;32138;50.966;6.968;2023-03-05T02:31:55;11.00;;;2.85;;
46439;SDS011;32138;50.966;6.968;2023-03-05T02:32:55;12.55;;;3.05;;
46439;SDS011;32138;50.966;6.968;2023-03-05T02:33:57;11.25;;;2.42;;
46439;SDS011;32138;50.966;6.968;2023-03-05T02:34:57;14.55;;;3.22;;
46439;SDS011;32138;50.966;6.968;2023-03-05T02:35:58;11.50;;;2.22;;
46439;SDS011;32138;50.966;6.968;2023-03-05T02:36:59;10.00;;;2.58;;
46439;SDS011;32138;50.966;6.968;2023-03-05T02:38:01;8.77;;;2.25;;
46439;SDS011;32138;50.966;6.968;2023-03-05T02:39:02;6.97;;;2.40;;
46439;SDS011;32138;50.966;6.968;2023-03-05T02:40:03;9.60;;;3.05;;
46439;SDS011;32138;50.966;6.968;2023-03-05T02:41:05;7.55;;;2.17;;
46439;SDS011;32138;50.966;6.968;2023-03-05T02:42:05;8.00;;;2.65;;
46439;SDS011;32138;50.966;6.968;2023-03-05T02:43:06;9.30;;;2.55;;
46439;SDS011;32138;50.966;6.968;2023-03-05T02:44:08;11.00;;;2.60;;
46439;SDS011;32138;50.966;6.968;2023-03-05T02:45:09;12.38;;;2.42;;
46439;SDS011;32138;50.966;6.968;2023-03-05T02:46:11;7.72;;;2.40;;
46439;SDS011;32138;50.966;6.968;2023-03-05T02:47:12;8.02;;;2.35;;
46439;SDS011;32138;50.966;6.968;2023-03-05T02:48:12;11.23;;;2.67;;
46439;SDS011;32138;50.966;6.968;2023-03-05T02:49:13;8.32;;;2.88;;
46439;SDS011;32138;50.966;6.968;2023-03-05T02:50:14;9.07;;;2.38;;
46439;SDS011;32138;50.966;6.968;2023-03-05T02:51:15;6.63;;;2.10;;
46439;SDS011;32138;50.966;6.968;2023-03-05T02:52:16;10.07;;;2.03;;
46439;SDS011;32138;50.966;6.968;2023-03-05T02:53:17;11.82;;;2.08;;
46439;SDS011;32138;50.966;6.968;2023-03-05T02:54:17;10.30;;;3.00;;
46439;SDS011;32138;50.966;6.968;2023-03-05T02:55:18;8.32;;;2.58;;
46439;SDS011;32138;50.966;6.968;2023-03-05T02:56:19;10.23;;;2.22;;
46439;SDS011;32138;50.966;6.968;2023-03-05T02:57:20;9.68;;;1.95;;
46439;SDS011;32138;50.966;6.968;2023-03-05T02:58:21;8.07;;;2.38;;
46439;SDS011;32138;50.966;6.968;2023-03-05T02:59:22;10.90;;;3.08;;
46439;SDS011;32138;50.966;6.968;2023-03-05T03:00:22;10.15;;;3.33;;
46439;SDS011;32138;50.966;6.968;2023-03-05T03:01:23;10.90;;;2.10;;
46439;SDS011;32138;50.966;6.968;2023-03-05T03:02:27;12.20;;;3.30;;
46439;SDS011;32138;50.966;6.968;2023-03-05T03:03:27;11.35;;;2.78;;
46439;SDS011;32138;50.966;6.968;2023-03-05T03:04:28;10.93;;;2.65;;
46439;SDS011;32138;50.966;6.968;2023-03-05T03:05:29;14.43;;;3.00;;
46439;SDS011;32138;50.966;6.968;2023-03-05T03:06:30;9.75;;;2.67;;
46439;SDS011;32138;50.966;6.968;2023-03-05T03:07:30;15.48;;;2.78;;
46439;SDS011;32138;50.966;6.968;2023-03-05T03:08:33;8.73;;;2.50;;
46439;SDS011;32138;50.966;6.968;2023-03-05T03:09:34;15.10;;;3.47;;
46439;SDS011;32138;50.966;6.968;2023-03-05T03:10:37;10.65;;;2.78;;
46439;SDS011;32138;50.966;6.968;2023-03-05T03:11:38;9.10;;;2.08;;
46439;SDS011;32138;50.966;6.968;2023-03-05T03:12:39;13.90;;;2.85;;
46439;SDS011;32138;50.966;6.968;2023-03-05T03:13:43;8.18;;;2.85;;
46439;SDS011;32138;50.966;6.968;2023-03-05T03:14:44;9.40;;;2.22;;
46439;SDS011;32138;50.966;6.968;2023-03-05T03:15:44;11.40;;;2.75;;
46439;SDS011;32138;50.966;6.968;2023-03-05T03:16:45;12.55;;;3.55;;
46439;SDS011;32138;50.966;6.968;2023-03-05T03:17:46;10.15;;;3.20;;
46439;SDS011;32138;50.966;6.968;2023-03-05T03:18:47;7.30;;;2.95;;
46439;SDS011;32138;50.966;6.968;2023-03-05T03:19:48;10.98;;;2.60;;
46439;SDS011;32138;50.966;6.968;2023-03-05T03:20:48;11.55;;;2.72;;
46439;SDS011;32138;50.966;6.968;2023-03-05T03:21:49;8.35;;;2.50;;
46439;SDS011;32138;50.966;6.968;2023-03-05T03:22:50;10.25;;;2.88;;
46439;SDS011;32138;50.966;6.968;2023-03-05T03:23:51;8.43;;;2.45;;
46439;SDS011;32138;50.966;6.968;2023-03-05T03:24:52;11.48;;;3.28;;
46439;SDS011;32138;50.966;6.968;2023-03-05T03:25:53;12.30;;;2.67;;
46439;SDS011;32138;50.966;6.968;2023-03-05T03:26:53;12.07;;;2.60;;
46439;SDS011;32138;50.966;6.968;2023-03-05T03:27:54;9.75;;;2.85;;
46439;SDS011;32138;50.966;6.968;2023-03-05T03:28:55;13.70;;;2.97;;
46439;SDS011;32138;50.966;6.968;2023-03-05T03:29:55;10.55;;;3.28;;
46439;SDS011;32138;50.966;6.968;2023-03-05T03:31:01;12.10;;;2.53;;
46439;SDS011;32138;50.966;6.968;2023-03-05T03:32:02;9.65;;;2.75;;
46439;SDS011;32138;50.966;6.968;2023-03-05T03:33:03;10.68;;;2.80;;
46439;SDS011;32138;50.966;6.968;2023-03-05T03:34:04;12.57;;;3.63;;
46439;SDS011;32138;50.966;6.968;2023-03-05T03:35:05;69.50;;;46.65;;
46439;SDS011;32138;50.966;6.968;2023-03-05T03:36:07;74.00;;;44.72;;
46439;SDS011;32138;50.966;6.968;2023-03-05T03:37:08;68.05;;;44.92;;
46439;SDS011;32138;50.966;6.968;2023-03-05T03:38:09;41.55;;;25.90;;
46439;SDS011;32138;50.966;6.968;2023-03-05T03:39:10;17.63;;;6.97;;
46439;SDS011;32138;50.966;6.968;2023-03-05T03:40:13;12.55;;;3.70;;
46439;SDS011;32138;50.966;6.968;2023-03-05T03:41:14;12.73;;;3.28;;
46439;SDS011;32138;50.966;6.968;2023-03-05T03:42:16;14.50;;;2.75;;
46439;SDS011;32138;50.966;6.968;2023-03-05T03:43:18;14.25;;;2.90;;
46439;SDS011;32138;50.966;6.968;2023-03-05T03:44:19;9.20;;;2.33;;
46439;SDS011;32138;50.966;6.968;2023-03-05T03:45:21;11.45;;;3.10;;
46439;SDS011;32138;50.966;6.968;2023-03-05T03:46:21;14.40;;;2.50;;
46439;SDS011;32138;50.966;6.968;2023-03-05T03:47:22;14.10;;;2.97;;
46439;SDS011;32138;50.966;6.968;2023-03-05T03:48:23;9.65;;;2.20;;
46439;SDS011;32138;50.966;6.968;2023-03-05T03:49:25;9.18;;;2.25;;
46439;SDS011;32138;50.966;6.968;2023-03-05T03:50:26;7.70;;;2.72;;
46439;SDS011;32138;50.966;6.968;2023-03-05T03:51:27;8.52;;;2.72;;
46439;SDS011;32138;50.966;6.968;2023-03-05T03:52:28;10.52;;;2.88;;
46439;SDS011;32138;50.966;6.968;2023-03-05T03:53:29;11.98;;;2.30;;
46439;SDS011;32138;50.966;6.968;2023-03-05T03:54:29;11.02;;;2.25;;
46439;SDS011;32138;50.966;6.968;2023-03-05T03:55:31;9.65;;;1.98;;
46439;SDS011;32138;50.966;6.968;2023-03-05T03:56:32;9.65;;;2.75;;
46439;SDS011;32138;50.966;6.968;2023-03-05T03:57:32;9.45;;;2.88;;
46439;SDS011;32138;50.966;6.968;2023-03-05T03:58:33;8.68;;;2.38;;
46439;SDS011;32138;50.966;6.968;2023-03-05T03:59:34;10.32;;;2.28;;
46439;SDS011;32138;50.966;6.968;2023-03-05T04:00:35;13.40;;;3.60;;
46439;SDS011;32138;50.966;6.968;2023-03-05T04:01:36;14.45;;;2.60;;
46439;SDS011;32138;50.966;6.968;2023-03-05T04:02:37;14.85;;;3.10;;
46439;SDS011;32138;50.966;6.968;2023-03-05T04:03:38;9.80;;;2.63;;
46439;SDS011;32138;50.966;6.968;2023-03-05T04:04:38;12.18;;;2.97;;
46439;SDS011;32138;50.966;6.968;2023-03-05T04:05:39;8.68;;;2.47;;
46439;SDS011;32138;50.966;6.968;2023-03-05T04:06:40;10.00;;;2.72;;
46439;SDS011;32138;50.966;6.968;2023-03-05T04:07:41;8.68;;;2.10;;
46439;SDS011;32138;50.966;6.968;2023-03-05T04:08:44;8.90;;;2.38;;
46439;SDS011;32138;50.966;6.968;2023-03-05T04:09:45;11.07;;;2.28;;
46439;SDS011;32138;50.966;6.968;2023-03-05T04:10:45;6.95;;;2.05;;
46439;SDS011;32138;50.966;6.968;2023-03-05T04:11:46;6.78;;;1.90;;
46439;SDS011;32138;50.966;6.968;2023-03-05T04:12:47;6.35;;;1.90;;
46439;SDS011;32138;50.966;6.968;2023-03-05T04:13:48;6.38;;;1.77;;
46439;SDS011;32138;50.966;6.968;2023-03-05T04:14:49;9.40;;;2.13;;
46439;SDS011;32138;50.966;6.968;2023-03-05T04:15:49;8.90;;;2.40;;
46439;SDS011;32138;50.966;6.968;2023-03-05T04:16:50;5.05;;;2.17;;
46439;SDS011;32138;50.966;6.968;2023-03-05T04:17:51;8.27;;;2.03;;
46439;SDS011;32138;50.966;6.968;2023-03-05T04:18:52;6.03;;;1.92;;
46439;SDS011;32138;50.966;6.968;2023-03-05T04:19:52;8.13;;;2.25;;
46439;SDS011;32138;50.966;6.968;2023-03-05T04:20:53;5.50;;;1.63;;
46439;SDS011;32138;50.966;6.968;2023-03-05T04:21:54;12.55;;;2.45;;
46439;SDS011;32138;50.966;6.968;2023-03-05T04:22:55;6.43;;;2.17;;
46439;SDS011;32138;50.966;6.968;2023-03-05T04:23:56;10.60;;;2.28;;
46439;SDS011;32138;50.966;6.968;2023-03-05T04:24:57;11.77;;;2.92;;
46439;SDS011;32138;50.966;6.968;2023-03-05T04:25:58;8.68;;;2.72;;
46439;SDS011;32138;50.966;6.968;2023-03-05T04:26:59;9.93;;;2.03;;
46439;SDS011;32138;50.966;6.968;2023-03-05T04:27:59;14.13;;;2.50;;
46439;SDS011;32138;50.966;6.968;2023-03-05T04:29:00;12.20;;;2.40;;
46439;SDS011;32138;50.966;6.968;2023-03-05T04:30:01;6.55;;;2.15;;
46439;SDS011;32138;50.966;6.968;2023-03-05T04:31:03;9.25;;;2.97;;
46439;SDS011;32138;50.966;6.968;2023-03-05T04:32:04;6.35;;;2.15;;
46439;SDS011;32138;50.966;6.968;2023-03-05T04:33:05;10.90;;;2.50;;
46439;SDS011;32138;50.966;6.968;2023-03-05T04:34:06;11.88;;;3.35;;
46439;SDS011;32138;50.966;6.968;2023-03-05T04:35:07;10.20;;;3.08;;
46439;SDS011;32138;50.966;6.968;2023-03-05T04:36:08;7.75;;;2.70;;
46439;SDS011;32138;50.966;6.968;2023-03-05T04:37:09;11.35;;;2.42;;
46439;SDS011;32138;50.966;6.968;2023-03-05T04:38:09;11.88;;;3.00;;
46439;SDS011;32138;50.966;6.968;2023-03-05T04:39:10;7.80;;;3.03;;
46439;SDS011;32138;50.966;6.968;2023-03-05T04:40:12;11.82;;;3.13;;
46439;SDS011;32138;50.966;6.968;2023-03-05T04:41:12;10.90;;;2.50;;
46439;SDS011;32138;50.966;6.968;2023-03-05T04:42:13;6.90;;;3.13;;
46439;SDS011;32138;50.966;6.968;2023-03-05T04:43:14;13.35;;;3.08;;
46439;SDS011;32138;50.966;6.968;2023-03-05T04:44:15;7.47;;;2.22;;
46439;SDS011;32138;50.966;6.968;2023-03-05T04:45:16;8.25;;;1.45;;
46439;SDS011;32138;50.966;6.968;2023-03-05T04:46:17;7.30;;;1.60;;
46439;SDS011;32138;50.966;6.968;2023-03-05T04:47:18;7.78;;;1.75;;
46439;SDS011;32138;50.966;6.968;2023-03-05T04:48:19;12.07;;;1.60;;
46439;SDS011;32138;50.966;6.968;2023-03-05T04:49:19;7.03;;;1.40;;
46439;SDS011;32138;50.966;6.968;2023-03-05T04:50:20;9.43;;;2.28;;
46439;SDS011;32138;50.966;6.968;2023-03-05T04:51:21;5.32;;;1.38;;
46439;SDS011;32138;50.966;6.968;2023-03-05T04:52:22;6.25;;;2.38;;
46439;SDS011;32138;50.966;6.968;2023-03-05T04:53:23;7.15;;;1.77;;
46439;SDS011;32138;50.966;6.968;2023-03-05T04:54:24;8.32;;;1.90;;
46439;SDS011;32138;50.966;6.968;2023-03-05T04:55:24;8.48;;;1.70;;
46439;SDS011;32138;50.966;6.968;2023-03-05T04:56:26;7.20;;;1.80;;
46439;SDS011;32138;50.966;6.968;2023-03-05T04:57:27;6.28;;;1.52;;
46439;SDS011;32138;50.966;6.968;2023-03-05T04:58:28;6.40;;;2.10;;
46439;SDS011;32138;50.966;6.968;2023-03-05T04:59:28;10.32;;;2.13;;
46439;SDS011;32138;50.966;6.968;2023-03-05T05:00:29;11.27;;;1.95;;
46439;SDS011;32138;50.966;6.968;2023-03-05T05:01:30;8.35;;;2.00;;
46439;SDS011;32138;50.966;6.968;2023-03-05T05:02:32;7.43;;;2.30;;
46439;SDS011;32138;50.966;6.968;2023-03-05T05:03:33;7.82;;;2.28;;
46439;SDS011;32138;50.966;6.968;2023-03-05T05:04:33;5.82;;;1.83;;
46439;SDS011;32138;50.966;6.968;2023-03-05T05:05:35;7.05;;;2.10;;
46439;SDS011;32138;50.966;6.968;2023-03-05T05:06:36;7.75;;;1.40;;
46439;SDS011;32138;50.966;6.968;2023-03-05T05:07:37;7.45;;;1.67;;
46439;SDS011;32138;50.966;6.968;2023-03-05T05:08:38;7.75;;;1.92;;
46439;SDS011;32138;50.966;6.968;2023-03-05T05:09:38;8.75;;;1.85;;
46439;SDS011;32138;50.966;6.968;2023-03-05T05:10:40;7.50;;;1.73;;
46439;SDS011;32138;50.966;6.968;2023-03-05T05:11:41;4.88;;;1.98;;
46439;SDS011;32138;50.966;6.968;2023-03-05T05:12:41;8.60;;;1.88;;
46439;SDS011;32138;50.966;6.968;2023-03-05T05:13:42;10.48;;;2.40;;
46439;SDS011;32138;50.966;6.968;2023-03-05T05:14:43;7.82;;;2.45;;
46439;SDS011;32138;50.966;6.968;2023-03-05T05:15:44;6.60;;;2.10;;
46439;SDS011;32138;50.966;6.968;2023-03-05T05:16:44;10.38;;;2.00;;
46439;SDS011;32138;50.966;6.968;2023-03-05T05:17:45;9.60;;;3.28;;
46439;SDS011;32138;50.966;6.968;2023-03-05T05:18:46;10.27;;;2.35;;
46439;SDS011;32138;50.966;6.968;2023-03-05T05:19:47;9.35;;;2.53;;
46439;SDS011;32138;50.966;6.968;2023-03-05T05:20:48;7.28;;;2.22;;
46439;SDS011;32138;50.966;6.968;2023-03-05T05:21:50;12.95;;;3.05;;
46439;SDS011;32138;50.966;6.968;2023-03-05T05:22:50;15.25;;;3.00;;
46439;SDS011;32138;50.966;6.968;2023-03-05T05:23:51;9.00;;;2.10;;
46439;SDS011;32138;50.966;6.968;2023-03-05T05:24:52;5.85;;;2.28;;
46439;SDS011;32138;50.966;6.968;2023-03-05T05:25:56;6.00;;;1.65;;
46439;SDS011;32138;50.966;6.968;2023-03-05T05:26:58;8.43;;;2.75;;
46439;SDS011;32138;50.966;6.968;2023-03-05T05:27:59;11.00;;;2.42;;
46439;SDS011;32138;50.966;6.968;2023-03-05T05:29:00;9.75;;;2.97;;
46439;SDS011;32138;50.966;6.968;2023-03-05T05:30:01;8.07;;;2.63;;
46439;SDS011;32138;50.966;6.968;2023-03-05T05:31:06;13.10;;;2.47;;
46439;SDS011;32138;50.966;6.968;2023-03-05T05:32:08;10.70;;;3.22;;
46439;SDS011;32138;50.966;6.968;2023-03-05T05:33:09;15.75;;;3.40;;
46439;SDS011;32138;50.966;6.968;2023-03-05T05:34:10;8.57;;;2.45;;
46439;SDS011;32138;50.966;6.968;2023-03-05T05:35:10;14.18;;;2.92;;
46439;SDS011;32138;50.966;6.968;2023-03-05T05:36:14;9.55;;;3.15;;
46439;SDS011;32138;50.966;6.968;2023-03-05T05:37:18;14.73;;;3.08;;
46439;SDS011;32138;50.966;6.968;2023-03-05T05:38:18;10.65;;;2.83;;
46439;SDS011;32138;50.966;6.968;2023-03-05T05:39:20;8.30;;;2.53;;
46439;SDS011;32138;50.966;6.968;2023-03-05T05:40:21;7.68;;;2.55;;
46439;SDS011;32138;50.966;6.968;2023-03-05T05:41:22;11.57;;;2.85;;
46439;SDS011;32138;50.966;6.968;2023-03-05T05:42:23;12.13;;;2.58;;
46439;SDS011;32138;50.966;6.968;2023-03-05T05:43:24;10.13;;;3.17;;
46439;SDS011;32138;50.966;6.968;2023-03-05T05:44:25;11.18;;;3.45;;
46439;SDS011;32138;50.966;6.968;2023-03-05T05:45:26;13.35;;;2.63;;
46439;SDS011;32138;50.966;6.968;2023-03-05T05:46:27;8.80;;;3.50;;
46439;SDS011;32138;50.966;6.968;2023-03-05T05:47:28;8.88;;;2.20;;
46439;SDS011;32138;50.966;6.968;2023-03-05T05:48:29;12.60;;;2.45;;
46439;SDS011;32138;50.966;6.968;2023-03-05T05:49:32;9.77;;;2.88;;
46439;SDS011;32138;50.966;6.968;2023-03-05T05:50:33;8.45;;;2.30;;
46439;SDS011;32138;50.966;6.968;2023-03-05T05:51:34;9.57;;;2.85;;
46439;SDS011;32138;50.966;6.968;2023-03-05T05:52:34;10.00;;;3.67;;
46439;SDS011;32138;50.966;6.968;2023-03-05T05:53:35;8.02;;;2.78;;
46439;SDS011;32138;50.966;6.968;2023-03-05T05:54:36;9.30;;;2.88;;
46439;SDS011;32138;50.966;6.968;2023-03-05T05:55:41;9.48;;;2.60;;
46439;SDS011;32138;50.966;6.968;2023-03-05T05:56:41;8.98;;;2.97;;
46439;SDS011;32138;50.966;6.968;2023-03-05T05:57:42;10.30;;;2.90;;
46439;SDS011;32138;50.966;6.968;2023-03-05T05:58:43;7.75;;;2.40;;
46439;SDS011;32138;50.966;6.968;2023-03-05T05:59:46;8.00;;;2.63;;
46439;SDS011;32138;50.966;6.968;2023-03-05T06:00:47;8.60;;;1.90;;
46439;SDS011;32138;50.966;6.968;2023-03-05T06:01:47;12.45;;;3.60;;
46439;SDS011;32138;50.966;6.968;2023-03-05T06:02:48;7.88;;;2.70;;
46439;SDS011;32138;50.966;6.968;2023-03-05T06:03:49;10.65;;;2.72;;
46439;SDS011;32138;50.966;6.968;2023-03-05T06:04:50;11.00;;;3.00;;
46439;SDS011;32138;50.966;6.968;2023-03-05T06:05:51;10.77;;;2.70;;
46439;SDS011;32138;50.966;6.968;2023-03-05T06:06:52;7.53;;;2.60;;
46439;SDS011;32138;50.966;6.968;2023-03-05T06:07:53;9.25;;;2.58;;
46439;SDS011;32138;50.966;6.968;2023-03-05T06:08:53;15.70;;;2.97;;
46439;SDS011;32138;50.966;6.968;2023-03-05T06:09:54;7.57;;;2.80;;